Time;durP1;ratioP1;P1;durP2;ratioP2;P2;SDS_P1;SDS_P2;PMS_P1;PMS_P2;Temp;Humidity;BMP_temperature;BMP_pressure;BME280_temperature;BME280_humidity;BME280_pressure;Samples;Min_cycle;Max_cycle;Signal;HPM_P1;HPM_P2
2023/08/28 00:00:10;;;;;;;1.70;0.80;;;13.50;99.90;;;;;;5123159;27;20051;-57
2023/08/28 00:02:36;;;;;;;2.97;0.98;;;13.50;99.90;;;;;;5126941;27;20273;-58
2023/08/28 00:05:03;;;;;;;1.80;1.00;;;13.50;99.90;;;;;;5123567;27;20841;-58
2023/08/28 00:07:33;;;;;;;1.98;1.17;;;13.50;99.90;;;;;;5127664;27;20139;-58
2023/08/28 00:09:59;;;;;;;1.80;0.80;;;13.40;99.90;;;;;;5123554;27;20532;-58
2023/08/28 00:12:25;;;;;;;2.00;0.85;;;13.40;99.90;;;;;;5127841;27;20059;-59
2023/08/28 00:14:51;;;;;;;2.40;0.90;;;13.30;99.90;;;;;;5124073;27;20063;-58
2023/08/28 00:17:17;;;;;;;1.90;0.88;;;13.30;99.90;;;;;;5124024;27;20055;-57
2023/08/28 00:19:43;;;;;;;1.48;0.65;;;13.20;99.90;;;;;;5125921;27;20051;-58
2023/08/28 00:22:09;;;;;;;1.17;0.90;;;13.20;99.90;;;;;;5121864;27;20870;-56
2023/08/28 00:24:35;;;;;;;4.28;1.02;;;13.20;99.90;;;;;;5127161;27;20050;-59
2023/08/28 00:27:00;;;;;;;4.80;0.82;;;13.20;99.90;;;;;;5123098;27;20066;-61
2023/08/28 00:29:26;;;;;;;2.28;2.00;;;13.10;99.90;;;;;;5127517;27;20304;-62
2023/08/28 00:31:52;;;;;;;2.70;1.10;;;13.20;99.90;;;;;;5123831;27;20067;-58
2023/08/28 00:34:17;;;;;;;2.42;0.90;;;13.10;99.90;;;;;;5126103;27;20073;-59
2023/08/28 00:36:43;;;;;;;1.83;0.95;;;13.10;99.90;;;;;;5111227;27;20065;-58
2023/08/28 00:39:09;;;;;;;3.05;1.00;;;13.10;99.90;;;;;;5131096;27;20057;-58
2023/08/28 00:41:36;;;;;;;2.03;0.80;;;13.10;99.90;;;;;;5131598;27;20055;-58
2023/08/28 00:44:03;;;;;;;1.88;1.10;;;13.10;99.90;;;;;;5127559;27;20146;-57
2023/08/28 00:46:28;;;;;;;1.70;0.88;;;13.10;99.90;;;;;;5110124;27;20095;-57
2023/08/28 00:48:54;;;;;;;6.57;1.27;;;13.20;99.90;;;;;;5128265;27;20489;-57
2023/08/28 00:51:20;;;;;;;2.20;1.05;;;13.10;99.90;;;;;;5128261;27;20058;-58
2023/08/28 00:53:46;;;;;;;3.30;1.63;;;13.20;99.90;;;;;;5128044;27;20055;-57
2023/08/28 00:56:11;;;;;;;0.93;0.82;;;13.20;99.90;;;;;;5127561;27;20448;-57
2023/08/28 00:58:37;;;;;;;3.53;1.17;;;13.20;99.90;;;;;;5110628;27;20054;-58
2023/08/28 01:03:28;;;;;;;1.20;0.90;;;13.30;99.90;;;;;;5129569;27;20058;-58
2023/08/28 01:08:56;;;;;;;2.38;1.08;;;13.30;99.90;;;;;;5132395;27;20102;-58
2023/08/28 01:11:35;;;;;;;1.50;0.88;;;13.30;99.90;;;;;;5124233;27;20065;-56
2023/08/28 01:16:36;;;;;;;3.03;1.02;;;13.20;99.90;;;;;;5114833;27;20055;-58
2023/08/28 01:19:07;;;;;;;1.95;0.70;;;13.20;99.90;;;;;;5124489;27;20055;-58
2023/08/28 01:21:32;;;;;;;2.30;0.90;;;13.20;99.90;;;;;;5122501;27;20047;-59
2023/08/28 01:24:01;;;;;;;2.35;0.82;;;13.10;99.90;;;;;;5106451;27;20047;-58
2023/08/28 01:26:27;;;;;;;6.82;2.15;;;13.10;99.90;;;;;;5129081;27;22153;-58
2023/08/28 01:28:52;;;;;;;1.42;0.75;;;13.00;99.90;;;;;;5126928;27;20056;-58
2023/08/28 01:31:18;;;;;;;1.98;0.60;;;13.10;99.90;;;;;;5127737;27;20107;-57
2023/08/28 01:33:44;;;;;;;3.47;0.82;;;13.10;99.90;;;;;;5128071;27;20055;-58
2023/08/28 01:36:49;;;;;;;3.45;0.90;;;13.00;99.90;;;;;;5124906;27;20055;-58
2023/08/28 01:39:31;;;;;;;3.25;0.80;;;13.00;99.90;;;;;;5122151;27;20065;-58
2023/08/28 01:41:58;;;;;;;1.40;1.17;;;13.00;99.90;;;;;;5125182;27;20066;-58
2023/08/28 01:44:29;;;;;;;2.33;1.20;;;12.90;99.90;;;;;;5128599;27;20091;-59
2023/08/28 01:46:56;;;;;;;3.35;1.25;;;12.90;99.90;;;;;;5106014;27;20047;-58
2023/08/28 01:49:27;;;;;;;2.50;0.88;;;12.90;99.90;;;;;;5129996;27;20454;-58
2023/08/28 01:51:53;;;;;;;3.30;0.80;;;12.90;99.90;;;;;;5126656;27;20155;-59
2023/08/28 01:54:19;;;;;;;1.50;0.90;;;12.80;99.90;;;;;;5127356;27;20840;-57
2023/08/28 01:56:45;;;;;;;3.38;1.15;;;12.90;99.90;;;;;;5109861;27;20051;-57
2023/08/28 01:59:11;;;;;;;3.08;1.00;;;12.80;99.90;;;;;;5125732;27;20055;-58
2023/08/28 02:01:36;;;;;;;0.98;0.98;;;12.80;99.90;;;;;;5112046;27;20397;-57
2023/08/28 02:04:02;;;;;;;1.17;1.00;;;12.80;99.90;;;;;;5126648;27;20420;-58
2023/08/28 02:06:28;;;;;;;3.45;1.85;;;12.80;99.90;;;;;;5127239;27;20111;-61
2023/08/28 02:08:53;;;;;;;1.40;1.05;;;12.70;99.90;;;;;;5108352;27;20046;-58
2023/08/28 02:11:19;;;;;;;4.32;1.35;;;12.70;99.90;;;;;;5107928;27;20055;-59
2023/08/28 02:13:45;;;;;;;2.13;1.15;;;12.60;99.90;;;;;;5109053;27;20229;-58
2023/08/28 02:16:13;;;;;;;1.20;1.05;;;12.70;99.90;;;;;;5105341;27;20058;-58
2023/08/28 02:18:39;;;;;;;1.25;0.80;;;12.50;99.90;;;;;;5130438;27;20062;-59
2023/08/28 02:21:08;;;;;;;1.38;1.27;;;12.60;99.90;;;;;;5107153;27;20054;-58
2023/08/28 02:23:34;;;;;;;1.17;0.70;;;12.60;99.90;;;;;;5130645;27;20074;-59
2023/08/28 02:26:00;;;;;;;2.50;1.08;;;12.60;99.90;;;;;;5127823;27;20055;-58
2023/08/28 02:28:25;;;;;;;1.05;0.82;;;12.50;99.90;;;;;;5126137;27;20411;-58
2023/08/28 02:30:51;;;;;;;1.50;0.80;;;12.50;99.90;;;;;;5126511;27;20500;-58
2023/08/28 02:33:17;;;;;;;1.42;1.20;;;12.50;99.90;;;;;;5125767;27;20059;-57
2023/08/28 02:35:44;;;;;;;2.22;1.10;;;12.50;99.90;;;;;;5127166;27;20079;-58
2023/08/28 02:38:10;;;;;;;2.42;1.00;;;12.40;99.90;;;;;;5127259;27;20146;-57
2023/08/28 02:40:39;;;;;;;0.88;0.88;;;12.40;99.90;;;;;;5129579;27;20065;-57
2023/08/28 02:43:09;;;;;;;6.53;1.42;;;12.40;99.90;;;;;;5124441;27;20563;-58
2023/08/28 02:45:43;;;;;;;2.50;0.88;;;12.30;99.90;;;;;;5128185;27;20114;-57
2023/08/28 02:48:09;;;;;;;2.75;1.20;;;12.30;99.90;;;;;;5122993;27;20424;-57
2023/08/28 02:50:35;;;;;;;1.55;1.27;;;12.30;99.90;;;;;;5130378;27;20055;-58
2023/08/28 02:53:02;;;;;;;2.22;1.55;;;12.30;99.90;;;;;;5106712;27;20112;-57
2023/08/28 02:55:30;;;;;;;1.48;1.02;;;12.40;99.90;;;;;;5126907;27;21406;-57
2023/08/28 02:57:56;;;;;;;3.83;1.40;;;12.30;99.90;;;;;;5126442;27;20150;-57
2023/08/28 03:00:22;;;;;;;4.03;1.40;;;12.30;99.90;;;;;;5104601;27;20099;-58
2023/08/28 03:02:48;;;;;;;2.13;1.50;;;12.30;99.90;;;;;;5108595;27;20070;-58
2023/08/28 03:05:14;;;;;;;2.33;1.50;;;12.30;99.90;;;;;;5113675;27;20051;-58
2023/08/28 03:07:39;;;;;;;4.40;1.35;;;12.30;99.90;;;;;;5089829;27;1099786;-58
2023/08/28 03:10:09;;;;;;;2.63;1.80;;;12.30;99.90;;;;;;5125510;27;20084;-58
2023/08/28 03:12:34;;;;;;;3.47;1.52;;;12.20;99.90;;;;;;5129842;27;20057;-58
2023/08/28 03:15:00;;;;;;;1.90;1.17;;;12.20;99.90;;;;;;5125862;27;20564;-59
2023/08/28 03:17:26;;;;;;;2.30;1.35;;;12.20;99.90;;;;;;5122908;27;20059;-58
2023/08/28 03:19:51;;;;;;;2.15;1.40;;;12.20;99.90;;;;;;5108969;27;20119;-58
2023/08/28 03:22:17;;;;;;;2.58;1.67;;;12.20;99.90;;;;;;5121394;27;20047;-57
2023/08/28 03:24:43;;;;;;;3.33;1.30;;;12.20;99.90;;;;;;5132324;27;20063;-58
2023/08/28 03:27:08;;;;;;;1.35;1.20;;;12.20;99.90;;;;;;5125838;27;20154;-57
2023/08/28 03:29:34;;;;;;;2.58;1.77;;;12.20;99.90;;;;;;5124001;27;20839;-57
2023/08/28 03:32:00;;;;;;;5.30;2.22;;;12.20;99.90;;;;;;5126330;27;20389;-58
2023/08/28 03:34:25;;;;;;;1.80;1.30;;;12.30;99.90;;;;;;5123173;27;20081;-57
2023/08/28 03:36:51;;;;;;;3.60;1.65;;;12.30;99.90;;;;;;5132329;27;20055;-58
2023/08/28 03:39:17;;;;;;;3.67;1.55;;;12.30;99.90;;;;;;5107033;27;20523;-57
2023/08/28 03:41:42;;;;;;;2.13;1.77;;;12.30;99.90;;;;;;5129070;27;20054;-57
2023/08/28 03:44:08;;;;;;;1.75;1.60;;;12.40;99.90;;;;;;5125386;27;20047;-57
2023/08/28 03:46:34;;;;;;;2.50;1.50;;;12.30;99.90;;;;;;5105089;27;20564;-58
2023/08/28 03:48:59;;;;;;;3.35;2.50;;;12.30;99.90;;;;;;5126441;27;20055;-57
2023/08/28 03:51:25;;;;;;;3.70;2.92;;;12.30;99.90;;;;;;5105369;27;20051;-58
2023/08/28 03:53:51;;;;;;;2.65;1.50;;;12.30;99.90;;;;;;5127145;27;20051;-58
2023/08/28 03:56:16;;;;;;;4.35;1.90;;;12.30;99.90;;;;;;5121745;27;20484;-58
2023/08/28 03:58:42;;;;;;;2.90;1.60;;;12.30;99.90;;;;;;5109379;27;20424;-58
2023/08/28 04:01:08;;;;;;;2.92;1.75;;;12.40;99.90;;;;;;5125048;27;20061;-56
2023/08/28 04:03:33;;;;;;;3.08;1.25;;;12.40;99.90;;;;;;5126793;27;20051;-58
2023/08/28 04:05:59;;;;;;;3.33;2.25;;;12.30;99.90;;;;;;5125339;27;20591;-58
2023/08/28 04:08:25;;;;;;;2.38;1.30;;;12.30;99.90;;;;;;5126341;27;21151;-58
2023/08/28 04:10:52;;;;;;;11.68;2.88;;;12.30;99.90;;;;;;5129590;27;20059;-57
2023/08/28 04:13:18;;;;;;;1.63;1.52;;;12.30;99.90;;;;;;5126015;27;20888;-57
2023/08/28 04:15:44;;;;;;;3.25;1.77;;;12.20;99.90;;;;;;5113403;27;20051;-58
2023/08/28 04:18:10;;;;;;;4.63;1.60;;;12.20;99.90;;;;;;5127627;27;20408;-59
2023/08/28 04:20:36;;;;;;;4.70;2.58;;;12.20;99.90;;;;;;5128547;27;20541;-58
2023/08/28 04:23:02;;;;;;;3.60;1.67;;;12.20;99.90;;;;;;5112384;27;20059;-57
2023/08/28 04:25:29;;;;;;;3.65;1.50;;;12.10;99.90;;;;;;5124876;27;20135;-57
2023/08/28 04:27:55;;;;;;;3.72;2.03;;;12.10;99.90;;;;;;5132944;27;20133;-57
2023/08/28 04:30:21;;;;;;;2.00;1.20;;;12.00;99.90;;;;;;5125838;27;20184;-60
2023/08/28 04:32:47;;;;;;;3.03;1.27;;;12.00;99.90;;;;;;5131799;27;20062;-58
2023/08/28 04:35:13;;;;;;;2.72;1.67;;;12.00;99.90;;;;;;5127710;27;20055;-57
2023/08/28 04:37:39;;;;;;;2.08;1.70;;;12.00;99.90;;;;;;5133295;27;20442;-58
2023/08/28 04:40:09;;;;;;;2.67;1.50;;;12.00;99.90;;;;;;5129756;27;20047;-58
2023/08/28 04:42:35;;;;;;;5.18;2.13;;;11.90;99.90;;;;;;5123912;27;20047;-58
2023/08/28 04:45:00;;;;;;;2.40;1.88;;;12.00;99.90;;;;;;5127653;27;20054;-57
2023/08/28 04:47:26;;;;;;;4.82;1.77;;;11.90;99.90;;;;;;5092613;27;21098;-57
2023/08/28 04:49:52;;;;;;;2.60;1.95;;;11.80;99.90;;;;;;5125760;27;20070;-58
2023/08/28 04:52:19;;;;;;;2.13;1.70;;;11.90;99.90;;;;;;5130300;27;20047;-57
2023/08/28 04:54:45;;;;;;;5.05;2.17;;;11.90;99.90;;;;;;5127163;27;20059;-58
2023/08/28 04:57:10;;;;;;;3.17;1.77;;;11.90;99.90;;;;;;5126932;27;20099;-57
2023/08/28 04:59:36;;;;;;;2.60;1.50;;;11.90;99.90;;;;;;5131460;27;20158;-58
2023/08/28 05:02:02;;;;;;;2.47;1.83;;;11.90;99.90;;;;;;5092768;27;20051;-58
2023/08/28 05:04:27;;;;;;;2.97;1.65;;;11.90;99.90;;;;;;5128934;27;20058;-57
2023/08/28 05:06:53;;;;;;;3.08;2.00;;;11.80;99.90;;;;;;5125799;27;20051;-58
2023/08/28 05:09:19;;;;;;;2.83;1.80;;;11.90;99.90;;;;;;5129717;27;20051;-57
2023/08/28 05:11:45;;;;;;;2.53;1.60;;;11.90;99.90;;;;;;5108541;27;20062;-57
2023/08/28 05:14:10;;;;;;;2.60;1.77;;;11.90;99.90;;;;;;5130151;27;20515;-57
2023/08/28 05:16:36;;;;;;;2.08;1.88;;;12.00;99.90;;;;;;5127755;27;20064;-64
2023/08/28 05:19:02;;;;;;;1.80;1.70;;;12.00;99.90;;;;;;5128116;27;20087;-63
2023/08/28 05:21:27;;;;;;;3.88;1.65;;;12.00;99.90;;;;;;5127948;27;20466;-64
2023/08/28 05:23:53;;;;;;;3.60;1.55;;;12.10;99.90;;;;;;5125162;27;20607;-64
2023/08/28 05:26:19;;;;;;;2.17;1.60;;;12.20;99.90;;;;;;5128911;27;20587;-57
2023/08/28 05:28:45;;;;;;;2.20;1.63;;;12.30;99.90;;;;;;5108762;27;20051;-61
2023/08/28 05:31:10;;;;;;;3.58;1.40;;;12.30;99.90;;;;;;5126324;27;20043;-58
2023/08/28 05:33:36;;;;;;;2.92;1.58;;;12.40;99.90;;;;;;5110219;27;20066;-59
2023/08/28 05:36:03;;;;;;;2.70;1.63;;;12.50;99.90;;;;;;5124955;27;20051;-60
2023/08/28 05:38:29;;;;;;;2.75;2.10;;;12.60;99.90;;;;;;5121005;27;20179;-60
2023/08/28 05:40:54;;;;;;;2.20;1.63;;;12.70;99.90;;;;;;5101880;27;20071;-60
2023/08/28 05:43:20;;;;;;;3.17;1.58;;;12.80;99.90;;;;;;5125781;27;20075;-59
2023/08/28 05:45:46;;;;;;;4.25;1.65;;;12.80;99.90;;;;;;5125809;27;20051;-59
2023/08/28 05:48:12;;;;;;;2.30;1.67;;;12.90;99.90;;;;;;5128074;27;20093;-58
2023/08/28 05:50:39;;;;;;;3.35;1.27;;;13.10;99.90;;;;;;5133328;27;20051;-62
2023/08/28 05:53:08;;;;;;;3.42;1.75;;;13.10;99.90;;;;;;5124302;27;20134;-59
2023/08/28 05:55:34;;;;;;;1.70;1.60;;;13.30;99.90;;;;;;5128534;27;20431;-63
2023/08/28 05:58:00;;;;;;;2.35;1.23;;;13.40;99.90;;;;;;5125062;27;20051;-58
2023/08/28 06:00:26;;;;;;;6.22;2.08;;;13.50;99.90;;;;;;5129840;27;20508;-58
2023/08/28 06:02:51;;;;;;;2.50;2.05;;;13.60;99.90;;;;;;5105818;27;20043;-62
2023/08/28 06:05:17;;;;;;;4.05;2.47;;;13.80;99.90;;;;;;5128012;27;20600;-61
2023/08/28 06:07:44;;;;;;;4.07;2.05;;;13.90;99.90;;;;;;5115673;27;20055;-62
2023/08/28 06:10:12;;;;;;;2.90;2.50;;;14.10;99.90;;;;;;5126404;27;20055;-58
2023/08/28 06:12:38;;;;;;;3.50;1.77;;;14.20;99.90;;;;;;5124432;27;20080;-60
2023/08/28 06:15:07;;;;;;;2.10;1.90;;;14.40;99.90;;;;;;5107565;27;20054;-59
2023/08/28 06:17:32;;;;;;;4.50;2.35;;;14.40;99.90;;;;;;5105367;27;20502;-60
2023/08/28 06:19:58;;;;;;;5.30;2.08;;;14.60;99.90;;;;;;5122692;27;20142;-58
2023/08/28 06:22:24;;;;;;;3.53;1.30;;;14.80;99.90;;;;;;5125440;27;20057;-62
2023/08/28 06:24:52;;;;;;;2.30;1.45;;;14.90;99.90;;;;;;5094442;27;20051;-63
2023/08/28 06:27:19;;;;;;;7.78;1.75;;;15.10;99.90;;;;;;5114617;27;20100;-58
2023/08/28 06:29:44;;;;;;;5.40;2.03;;;15.30;99.90;;;;;;5115986;27;20857;-58
2023/08/28 06:32:11;;;;;;;1.65;1.23;;;15.40;99.90;;;;;;5114858;27;20086;-57
2023/08/28 06:34:37;;;;;;;2.88;0.93;;;15.60;99.90;;;;;;5111159;27;20055;-57
2023/08/28 06:37:02;;;;;;;3.00;1.27;;;15.70;99.90;;;;;;5107776;27;20550;-57
2023/08/28 06:39:28;;;;;;;2.08;1.60;;;15.80;99.90;;;;;;5116373;27;20615;-57
2023/08/28 06:41:54;;;;;;;2.67;1.55;;;16.00;99.90;;;;;;5122657;27;20161;-57
2023/08/28 06:44:19;;;;;;;5.03;1.30;;;16.20;99.90;;;;;;5113320;27;20043;-57
2023/08/28 06:46:45;;;;;;;4.00;1.95;;;16.20;99.90;;;;;;5076093;28;20052;-57
2023/08/28 06:49:11;;;;;;;1.13;1.00;;;16.50;99.90;;;;;;5097339;27;20055;-57
2023/08/28 06:51:36;;;;;;;3.08;1.30;;;16.50;99.90;;;;;;5121571;27;20485;-58
2023/08/28 06:54:02;;;;;;;1.65;1.13;;;16.70;99.90;;;;;;5107551;27;20059;-58
2023/08/28 06:56:29;;;;;;;4.57;1.00;;;16.70;99.90;;;;;;5112864;27;20063;-58
2023/08/28 06:58:55;;;;;;;3.58;1.45;;;17.00;99.90;;;;;;5114811;27;20085;-58
2023/08/28 07:01:22;;;;;;;1.27;1.17;;;16.90;99.90;;;;;;5121562;27;20584;-58
2023/08/28 07:03:48;;;;;;;1.95;1.60;;;16.90;99.90;;;;;;5109032;27;20059;-58
2023/08/28 07:06:13;;;;;;;4.43;1.30;;;17.40;99.90;;;;;;5110712;27;20128;-57
2023/08/28 07:08:39;;;;;;;3.72;0.95;;;17.10;99.90;;;;;;5103972;27;20051;-58
2023/08/28 07:11:08;;;;;;;4.65;1.38;;;17.40;99.90;;;;;;5098908;28;20193;-58
2023/08/28 07:13:34;;;;;;;1.77;1.02;;;17.50;99.90;;;;;;5119421;27;20104;-58
2023/08/28 07:16:01;;;;;;;1.50;0.77;;;17.80;99.90;;;;;;5115260;27;20583;-58
2023/08/28 07:18:27;;;;;;;2.08;1.00;;;17.80;99.90;;;;;;5095136;27;20083;-58
2023/08/28 07:20:53;;;;;;;3.60;0.80;;;17.90;99.90;;;;;;5134279;27;20145;-58
2023/08/28 07:23:19;;;;;;;2.13;1.20;;;18.10;99.90;;;;;;5093243;27;1116012;-58
2023/08/28 07:25:45;;;;;;;2.40;1.00;;;18.30;99.90;;;;;;5098584;27;20116;-58
2023/08/28 07:28:11;;;;;;;1.80;1.10;;;18.60;99.90;;;;;;5101456;27;20501;-58
2023/08/28 07:30:37;;;;;;;3.42;1.38;;;18.80;99.90;;;;;;5098925;28;20070;-58
2023/08/28 07:35:34;;;;;;;2.38;0.90;;;19.00;99.90;;;;;;5134855;27;20181;-58
2023/08/28 07:40:28;;;;;;;3.63;1.05;;;19.10;99.90;;;;;;5116914;27;21276;-58
2023/08/28 07:42:54;;;;;;;0.75;0.70;;;19.40;99.90;;;;;;5114284;27;20058;-58
2023/08/28 07:45:20;;;;;;;2.85;0.88;;;19.30;99.90;;;;;;5124060;27;20301;-58
2023/08/28 07:47:45;;;;;;;1.02;0.95;;;19.50;99.90;;;;;;5102095;27;20051;-58
2023/08/28 07:50:11;;;;;;;1.15;0.60;;;19.70;99.90;;;;;;5111263;27;20262;-58
2023/08/28 07:52:37;;;;;;;3.10;0.52;;;19.80;99.90;;;;;;5118921;27;20066;-59
2023/08/28 07:55:03;;;;;;;1.25;0.52;;;19.80;99.90;;;;;;5114491;27;20508;-58
2023/08/28 07:57:28;;;;;;;1.17;0.68;;;20.00;99.90;;;;;;5107022;27;20847;-58
2023/08/28 07:59:54;;;;;;;1.95;0.90;;;20.10;99.90;;;;;;5116246;27;20149;-58
2023/08/28 08:02:20;;;;;;;1.75;0.82;;;20.20;99.90;;;;;;5111916;27;20134;-57
2023/08/28 08:04:45;;;;;;;1.27;0.88;;;20.50;99.90;;;;;;5121054;27;20047;-58
2023/08/28 08:07:11;;;;;;;1.80;1.00;;;20.80;99.90;;;;;;5110177;27;20503;-58
2023/08/28 08:09:37;;;;;;;2.38;1.10;;;21.20;99.90;;;;;;5113758;27;20048;-62
2023/08/28 08:12:03;;;;;;;5.05;1.42;;;21.60;99.90;;;;;;5112353;27;20055;-59
2023/08/28 08:14:28;;;;;;;0.63;0.55;;;21.60;99.90;;;;;;5101561;27;20932;-61
2023/08/28 08:16:54;;;;;;;2.20;1.10;;;21.70;99.90;;;;;;5101224;27;20513;-59
2023/08/28 08:19:20;;;;;;;0.93;0.40;;;22.10;99.90;;;;;;5118067;27;20083;-61
2023/08/28 08:21:45;;;;;;;1.70;0.60;;;22.40;99.90;;;;;;5106648;27;20055;-58
2023/08/28 08:24:11;;;;;;;1.67;0.57;;;22.30;99.90;;;;;;5113436;27;20099;-59
2023/08/28 08:26:37;;;;;;;1.90;0.63;;;23.30;99.90;;;;;;5103204;27;20062;-58
2023/08/28 08:29:02;;;;;;;2.00;0.57;;;24.10;99.90;;;;;;5104976;27;20692;-58
2023/08/28 08:31:28;;;;;;;3.90;1.13;;;23.80;99.90;;;;;;5104345;27;20136;-58
2023/08/28 08:33:54;;;;;;;1.27;0.55;;;23.60;99.90;;;;;;5106955;27;20059;-59
2023/08/28 08:36:19;;;;;;;2.92;0.65;;;23.20;99.90;;;;;;5095692;27;20070;-58
2023/08/28 08:38:45;;;;;;;3.30;0.63;;;22.70;99.90;;;;;;5106000;27;20153;-58
2023/08/28 08:41:11;;;;;;;2.15;0.60;;;22.60;99.90;;;;;;5123815;27;20059;-59
2023/08/28 08:43:37;;;;;;;1.85;0.73;;;22.70;99.90;;;;;;5098682;27;20625;-58
2023/08/28 08:48:59;;;;;;;3.85;0.73;;;22.50;99.90;;;;;;5134244;27;20500;-58
2023/08/28 08:51:29;;;;;;;3.75;0.80;;;22.50;99.90;;;;;;5093273;27;20609;-58
2023/08/28 08:54:07;;;;;;;0.80;0.50;;;22.00;99.90;;;;;;5134593;27;20468;-59
2023/08/28 08:56:34;;;;;;;0.32;0.32;;;22.20;99.90;;;;;;5089925;27;20165;-59
2023/08/28 08:59:00;;;;;;;4.35;1.00;;;21.80;99.90;;;;;;5124047;27;20046;-59
2023/08/28 09:01:28;;;;;;;1.35;0.70;;;21.60;99.90;;;;;;5125108;27;20070;-59
2023/08/28 09:03:56;;;;;;;0.40;0.38;;;21.10;99.90;;;;;;5120854;27;20044;-58
2023/08/28 09:06:22;;;;;;;2.03;0.90;;;20.70;99.90;;;;;;5128363;27;20082;-59
2023/08/28 09:08:48;;;;;;;2.03;0.30;;;20.40;99.90;;;;;;5095263;27;20188;-58
2023/08/28 09:11:14;;;;;;;2.88;0.50;;;20.20;99.90;;;;;;5124432;27;20071;-59
2023/08/28 09:13:42;;;;;;;5.55;0.90;;;20.80;99.90;;;;;;5113175;27;20503;-58
2023/08/28 09:16:08;;;;;;;3.78;0.90;;;21.30;99.90;;;;;;5113313;27;20078;-57
2023/08/28 09:18:34;;;;;;;2.92;0.50;;;22.00;99.90;;;;;;5101692;27;20410;-59
2023/08/28 09:21:07;;;;;;;1.65;0.63;;;22.00;99.90;;;;;;5068610;28;20112;-58
2023/08/28 09:23:33;;;;;;;4.03;1.00;;;22.10;99.90;;;;;;5113101;27;20056;-58
2023/08/28 09:26:00;;;;;;;1.77;0.60;;;22.50;99.90;;;;;;5101054;27;20090;-58
2023/08/28 09:28:26;;;;;;;2.97;0.68;;;23.00;99.90;;;;;;5115930;27;20170;-58
2023/08/28 09:30:52;;;;;;;1.30;0.30;;;23.60;99.90;;;;;;5135645;27;20461;-58
2023/08/28 09:33:18;;;;;;;5.25;0.75;;;23.10;99.90;;;;;;5128088;27;20515;-57
2023/08/28 09:35:44;;;;;;;1.45;0.75;;;22.80;99.90;;;;;;5104861;27;20167;-58
2023/08/28 09:38:10;;;;;;;1.23;0.45;;;22.70;99.90;;;;;;5100988;27;20066;-57
2023/08/28 09:40:41;;;;;;;1.05;0.30;;;24.00;99.90;;;;;;5113457;27;20254;-67
2023/08/28 09:43:15;;;;;;;2.25;1.00;;;24.60;99.90;;;;;;5126130;27;20066;-65
2023/08/28 09:45:42;;;;;;;1.05;0.60;;;24.50;99.90;;;;;;5120335;27;20074;-59
2023/08/28 09:48:09;;;;;;;3.75;0.73;;;24.70;99.90;;;;;;5129715;27;20524;-59
2023/08/28 09:50:41;;;;;;;1.00;0.68;;;24.80;99.90;;;;;;5120838;27;20055;-58
2023/08/28 09:53:09;;;;;;;0.50;0.50;;;24.40;99.90;;;;;;5098784;27;20055;-57
2023/08/28 09:55:50;;;;;;;1.10;0.55;;;23.50;99.90;;;;;;5117775;27;20053;-58
2023/08/28 09:58:17;;;;;;;1.23;0.47;;;23.00;99.90;;;;;;5106868;27;20055;-60
2023/08/28 10:00:44;;;;;;;2.25;0.85;;;22.60;99.90;;;;;;5110719;27;20055;-59
2023/08/28 10:03:14;;;;;;;0.70;0.45;;;22.60;99.90;;;;;;5120446;27;20057;-59
2023/08/28 10:05:44;;;;;;;0.93;0.52;;;23.00;99.90;;;;;;5114265;27;20051;-64
2023/08/28 10:08:12;;;;;;;0.52;0.50;;;23.10;99.90;;;;;;5111872;27;20982;-65
2023/08/28 10:10:41;;;;;;;0.68;0.57;;;24.00;99.90;;;;;;5118561;27;20146;-64
2023/08/28 10:13:14;;;;;;;0.85;0.40;;;24.30;99.90;;;;;;5107092;27;20057;-59
2023/08/28 10:15:44;;;;;;;;;;;24.50;99.90;;;;;;5121862;27;20107;-62
2023/08/28 10:18:16;;;;;;;1.02;0.80;;;23.50;99.90;;;;;;5123716;27;19924;-66
2023/08/28 10:20:44;;;;;;;2.42;0.60;;;23.20;99.90;;;;;;5133138;27;20058;-67
2023/08/28 10:23:12;;;;;;;0.93;0.38;;;22.80;99.90;;;;;;5079185;27;20147;-61
2023/08/28 10:25:40;;;;;;;4.13;1.05;;;21.00;99.90;;;;;;5112455;27;20517;-59
2023/08/28 10:28:07;;;;;;;4.43;0.70;;;20.60;99.90;;;;;;5129107;27;20085;-59
2023/08/28 10:30:35;;;;;;;4.32;1.40;;;20.10;99.90;;;;;;5119137;27;20073;-63
2023/08/28 10:33:03;;;;;;;1.42;0.70;;;19.60;99.90;;;;;;5122799;27;20057;-58
2023/08/28 10:35:30;;;;;;;3.90;1.15;;;19.60;99.90;;;;;;5120575;27;20064;-60
2023/08/28 10:38:00;;;;;;;1.52;0.77;;;19.60;99.90;;;;;;5114691;27;20087;-60
2023/08/28 10:40:26;;;;;;;2.38;0.75;;;19.50;99.90;;;;;;5126850;27;20499;-61
2023/08/28 10:42:53;;;;;;;2.13;0.77;;;19.40;99.90;;;;;;5136735;27;20043;-60
2023/08/28 10:45:19;;;;;;;1.40;0.57;;;19.30;99.90;;;;;;5118122;27;20059;-60
2023/08/28 10:47:49;;;;;;;1.75;0.60;;;19.30;99.90;;;;;;5134009;27;20411;-60
2023/08/28 10:50:15;;;;;;;0.82;0.50;;;19.20;99.90;;;;;;5127761;27;20098;-60
2023/08/28 10:52:41;;;;;;;1.77;0.68;;;19.20;99.90;;;;;;5138431;27;20599;-59
2023/08/28 10:55:09;;;;;;;1.27;0.55;;;19.20;99.90;;;;;;5137892;27;20469;-60
2023/08/28 10:57:40;;;;;;;1.05;0.55;;;19.20;99.90;;;;;;5137616;27;21253;-60
2023/08/28 11:00:18;;;;;;;1.20;0.80;;;19.30;99.90;;;;;;5122180;27;20078;-60
2023/08/28 11:03:08;;;;;;;1.20;0.40;;;19.40;99.90;;;;;;5128122;27;20527;-60
2023/08/28 11:05:35;;;;;;;1.13;0.40;;;19.70;99.90;;;;;;5128335;27;20059;-60
2023/08/28 11:10:29;;;;;;;0.95;0.50;;;19.70;99.90;;;;;;5099900;27;20941;-59
2023/08/28 11:12:59;;;;;;;2.55;0.93;;;19.80;99.90;;;;;;5101817;27;20055;-59
2023/08/28 11:15:29;;;;;;;2.78;0.63;;;19.80;99.90;;;;;;5100339;28;20066;-59
2023/08/28 11:20:35;;;;;;;3.28;0.88;;;20.10;99.90;;;;;;5118398;27;20055;-58
2023/08/28 11:23:01;;;;;;;0.52;0.50;;;20.20;99.90;;;;;;5109130;27;20061;-59
2023/08/28 11:25:39;;;;;;;3.15;0.85;;;20.40;99.90;;;;;;5102788;27;20059;-59
2023/08/28 11:28:26;;;;;;;0.60;0.60;;;20.30;99.90;;;;;;5099778;28;20056;-59
2023/08/28 11:30:52;;;;;;;0.88;0.47;;;20.30;99.90;;;;;;5088746;27;20039;-59
2023/08/28 11:33:19;;;;;;;1.80;0.65;;;20.40;99.90;;;;;;5077616;28;20078;-59
2023/08/28 11:35:45;;;;;;;1.15;0.50;;;20.60;99.90;;;;;;5084134;28;20056;-60
2023/08/28 11:38:11;;;;;;;1.58;0.70;;;20.50;99.90;;;;;;5115497;27;20119;-59
2023/08/28 11:40:37;;;;;;;0.95;0.60;;;20.80;99.90;;;;;;5064238;27;1230734;-59
2023/08/28 11:43:07;;;;;;;1.58;0.60;;;21.20;99.90;;;;;;5107413;27;20054;-59
2023/08/28 11:45:33;;;;;;;0.85;0.30;;;21.10;99.90;;;;;;5095408;27;20142;-59
2023/08/28 11:50:29;;;;;;;0.75;0.35;;;21.70;99.90;;;;;;5101549;27;20063;-60
2023/08/28 11:52:55;;;;;;;2.13;0.82;;;22.00;99.90;;;;;;5120045;27;20051;-59
2023/08/28 11:55:20;;;;;;;1.95;0.57;;;23.30;99.90;;;;;;5130493;27;20086;-61
2023/08/28 11:57:49;;;;;;;2.80;0.82;;;24.40;99.90;;;;;;5120737;27;20568;-59
2023/08/28 12:00:16;;;;;;;0.88;0.60;;;25.90;99.90;;;;;;5115856;27;20489;-58
2023/08/28 12:02:46;;;;;;;0.88;0.52;;;28.20;99.90;;;;;;5115099;27;20092;-59
2023/08/28 12:05:15;;;;;;;1.52;0.82;;;29.60;99.90;;;;;;5114886;27;20390;-58
2023/08/28 12:07:46;;;;;;;2.00;0.57;;;31.90;99.90;;;;;;5112944;27;20119;-59
2023/08/28 12:10:14;;;;;;;1.40;0.70;;;32.90;99.90;;;;;;5127141;27;20182;-59
2023/08/28 12:12:40;;;;;;;0.90;0.60;;;33.20;99.90;;;;;;5116680;27;20739;-59
2023/08/28 12:15:08;;;;;;;0.50;0.50;;;32.60;99.30;;;;;;5113727;27;20112;-59
2023/08/28 12:17:35;;;;;;;4.13;0.63;;;32.10;99.60;;;;;;5126209;27;20051;-59
2023/08/28 12:20:04;;;;;;;1.02;0.95;;;29.60;99.90;;;;;;5126491;27;20465;-59
2023/08/28 12:22:41;;;;;;;0.85;0.32;;;30.60;99.90;;;;;;5114901;27;20132;-59
2023/08/28 12:25:08;;;;;;;1.40;0.60;;;30.90;99.90;;;;;;5105072;27;20070;-59
2023/08/28 12:27:33;;;;;;;0.90;0.45;;;28.90;99.90;;;;;;5113479;27;20102;-58
2023/08/28 12:29:59;;;;;;;0.30;0.30;;;26.30;99.90;;;;;;5092895;27;21717;-59
2023/08/28 12:32:26;;;;;;;0.20;0.20;;;26.10;99.90;;;;;;5093943;27;20064;-59
2023/08/28 12:34:51;;;;;;;1.65;0.50;;;27.40;99.90;;;;;;5099744;27;20067;-58
2023/08/28 12:37:17;;;;;;;0.55;0.30;;;27.80;99.90;;;;;;5125383;27;20058;-59
2023/08/28 12:39:48;;;;;;;1.08;0.38;;;28.90;99.90;;;;;;5120190;27;20082;-59
2023/08/28 12:42:17;;;;;;;0.85;0.50;;;28.80;99.90;;;;;;5097483;27;20047;-58
2023/08/28 12:44:43;;;;;;;0.98;0.50;;;27.70;99.90;;;;;;5125045;27;20138;-59
2023/08/28 12:47:17;;;;;;;2.20;0.50;;;26.30;99.90;;;;;;5122485;27;20207;-57
2023/08/28 12:49:43;;;;;;;1.10;0.40;;;25.00;99.90;;;;;;5121148;27;20464;-58
2023/08/28 12:52:10;;;;;;;1.67;0.35;;;24.10;99.90;;;;;;5109400;27;20483;-59
2023/08/28 12:54:38;;;;;;;1.85;0.35;;;23.60;99.90;;;;;;5115971;27;20059;-59
2023/08/28 12:57:07;;;;;;;0.40;0.28;;;23.30;99.90;;;;;;5117404;27;20052;-58
2023/08/28 12:59:33;;;;;;;0.50;0.45;;;23.00;99.90;;;;;;5117039;27;20055;-59
2023/08/28 13:02:00;;;;;;;0.68;0.30;;;23.20;99.90;;;;;;5109337;27;20059;-59
2023/08/28 13:04:27;;;;;;;2.15;0.40;;;23.80;99.90;;;;;;5114887;27;20083;-58
2023/08/28 13:06:53;;;;;;;2.30;0.60;;;23.50;99.90;;;;;;5108808;27;20055;-58
2023/08/28 13:09:21;;;;;;;1.17;0.85;;;23.70;99.90;;;;;;5096427;27;20703;-59